Time;durP1;ratioP1;P1;durP2;ratioP2;P2;SDS_P1;SDS_P2;PMS_P1;PMS_P2;Temp;Humidity;BMP_temperature;BMP_pressure;BME280_temperature;BME280_humidity;BME280_pressure;Samples;Min_cycle;Max_cycle;Signal;HPM_P1;HPM_P2
2021/05/07 00:00:39;;;;;;;5.13;3.83;;;358.80;1766.40;;;;;;5082446;28;20034;-80
2021/05/07 00:03:05;;;;;;;6.57;4.35;;;358.80;1766.40;;;;;;5080846;28;20040;-77
2021/05/07 00:05:31;;;;;;;8.05;4.35;;;358.80;1766.40;;;;;;5074074;28;20033;-78
2021/05/07 00:07:56;;;;;;;8.95;4.05;;;358.70;1766.40;;;;;;5085326;28;20459;-81
2021/05/07 00:10:24;;;;;;;7.05;3.40;;;358.60;1792.00;;;;;;5091979;28;20060;-80
2021/05/07 00:12:50;;;;;;;4.70;3.40;;;358.80;1792.00;;;;;;5092953;28;20408;-79
2021/05/07 00:15:16;;;;;;;7.32;3.97;;;358.60;1792.00;;;;;;5090387;28;20052;-78
2021/05/07 00:17:42;;;;;;;4.90;3.55;;;358.60;1792.00;;;;;;5070898;28;20040;-78
2021/05/07 00:20:09;;;;;;;6.63;3.38;;;358.70;1766.40;;;;;;5072458;28;20495;-79
2021/05/07 00:22:36;;;;;;;5.72;3.10;;;358.80;1766.40;;;;;;5077766;28;20097;-78
2021/05/07 00:25:03;;;;;;;5.32;3.65;;;358.80;1766.40;;;;;;5078757;28;20090;-80
2021/05/07 00:27:29;;;;;;;5.80;4.13;;;358.90;1766.40;;;;;;5084633;28;20060;-78
2021/05/07 00:29:54;;;;;;;6.70;4.35;;;358.90;1766.40;;;;;;5071435;28;20048;-77
2021/05/07 00:32:20;;;;;;;7.38;3.75;;;358.90;1766.40;;;;;;5088722;28;20082;-78
2021/05/07 00:34:46;;;;;;;6.03;3.53;;;358.90;1792.00;;;;;;5072760;28;20027;-79
2021/05/07 00:37:11;;;;;;;7.70;3.75;;;358.90;1766.40;;;;;;5083210;28;20083;-80
2021/05/07 00:39:37;;;;;;;5.45;3.25;;;359.00;1792.00;;;;;;5076772;28;20032;-80
2021/05/07 00:42:04;;;;;;;6.25;4.00;;;359.00;1766.40;;;;;;5091480;28;20032;-80
2021/05/07 00:44:32;;;;;;;7.75;4.03;;;358.90;1792.00;;;;;;5076545;28;20087;-79
2021/05/07 00:47:04;;;;;;;7.65;4.00;;;359.00;1792.00;;;;;;5078045;28;20107;-80
2021/05/07 00:49:31;;;;;;;7.45;4.45;;;358.90;1792.00;;;;;;5090938;28;20047;-80
2021/05/07 00:51:56;;;;;;;10.75;4.18;;;358.80;1817.60;;;;;;5085705;28;20491;-79
2021/05/07 00:54:22;;;;;;;6.50;4.13;;;358.90;1817.60;;;;;;5070543;28;20028;-80
2021/05/07 00:56:48;;;;;;;6.97;3.70;;;358.90;1817.60;;;;;;5088533;28;20020;-78
2021/05/07 00:59:14;;;;;;;5.53;3.50;;;358.90;1792.00;;;;;;5081473;28;20028;-80
2021/05/07 01:01:40;;;;;;;4.53;3.13;;;358.90;1792.00;;;;;;5086482;28;20115;-77
2021/05/07 01:04:05;;;;;;;5.80;3.47;;;358.90;1766.40;;;;;;5084815;28;20024;-78
2021/05/07 01:06:31;;;;;;;8.05;4.00;;;358.80;1766.40;;;;;;5084093;28;20032;-78
2021/05/07 01:08:57;;;;;;;5.45;3.10;;;358.80;1766.40;;;;;;5076483;28;20372;-79
2021/05/07 01:11:23;;;;;;;5.95;4.10;;;358.80;1766.40;;;;;;5078572;28;20048;-78
2021/05/07 01:13:49;;;;;;;6.30;4.38;;;358.90;1740.80;;;;;;5089984;28;20024;-78
2021/05/07 01:16:14;;;;;;;6.97;3.65;;;358.90;1740.80;;;;;;5080290;28;20017;-80
2021/05/07 01:18:40;;;;;;;6.30;4.03;;;358.90;1740.80;;;;;;5088085;28;20020;-79
2021/05/07 01:21:06;;;;;;;5.95;3.63;;;358.90;1740.80;;;;;;5082954;28;20477;-80
2021/05/07 01:23:31;;;;;;;5.82;3.25;;;358.90;1740.80;;;;;;5070815;28;20079;-79
2021/05/07 01:25:57;;;;;;;7.13;4.15;;;359.00;1740.80;;;;;;5085890;28;20024;-77
2021/05/07 01:28:23;;;;;;;5.95;3.38;;;359.00;1715.20;;;;;;5072781;28;20024;-79
2021/05/07 01:30:50;;;;;;;6.63;4.10;;;359.00;1715.20;;;;;;5079775;28;20082;-79
2021/05/07 01:33:19;;;;;;;5.70;4.15;;;359.00;1715.20;;;;;;5081636;28;20020;-79
2021/05/07 01:35:46;;;;;;;6.13;3.65;;;359.00;1715.20;;;;;;5095076;28;20020;-78
2021/05/07 01:38:14;;;;;;;7.22;3.88;;;359.10;1715.20;;;;;;5094851;28;20106;-76
2021/05/07 01:40:42;;;;;;;6.47;3.80;;;359.00;1715.20;;;;;;5084164;28;20029;-77
2021/05/07 01:43:09;;;;;;;4.82;3.88;;;359.10;1715.20;;;;;;5078555;28;20107;-78
2021/05/07 01:45:38;;;;;;;7.63;4.03;;;359.10;1715.20;;;;;;5094679;28;20036;-77
2021/05/07 01:48:05;;;;;;;15.15;4.05;;;359.10;1715.20;;;;;;5094663;28;20027;-77
2021/05/07 01:50:33;;;;;;;6.32;3.63;;;359.10;1715.20;;;;;;5087435;28;20078;-77
2021/05/07 01:53:00;;;;;;;7.07;3.60;;;359.10;1715.20;;;;;;5075591;28;20021;-78
2021/05/07 01:55:31;;;;;;;7.78;3.97;;;359.10;1715.20;;;;;;5080402;28;20063;-78
2021/05/07 01:57:58;;;;;;;6.43;4.40;;;359.10;1715.20;;;;;;5076662;28;20021;-78
2021/05/07 02:00:26;;;;;;;8.95;3.95;;;359.10;1715.20;;;;;;5073509;28;20021;-75
2021/05/07 02:02:53;;;;;;;13.15;3.55;;;359.20;1715.20;;;;;;5074244;28;20499;-77
2021/05/07 02:05:19;;;;;;;5.18;3.75;;;359.20;1715.20;;;;;;5073858;28;20028;-76
2021/05/07 02:07:46;;;;;;;8.38;4.18;;;359.10;1740.80;;;;;;5073552;28;20081;-78
2021/05/07 02:10:17;;;;;;;7.57;4.18;;;359.20;1740.80;;;;;;5075238;28;20097;-77
2021/05/07 02:12:44;;;;;;;5.40;3.42;;;359.10;1740.80;;;;;;5073259;28;20037;-76
2021/05/07 02:15:12;;;;;;;6.65;3.85;;;359.10;1740.80;;;;;;5074588;28;20021;-78
2021/05/07 02:17:38;;;;;;;7.78;4.18;;;359.10;1740.80;;;;;;5085628;28;20043;-77
2021/05/07 02:20:05;;;;;;;5.63;3.28;;;359.10;1740.80;;;;;;5087929;28;20028;-77
2021/05/07 02:22:32;;;;;;;6.20;3.47;;;359.10;1766.40;;;;;;5087697;28;20485;-76
2021/05/07 02:24:58;;;;;;;6.65;3.90;;;359.10;1766.40;;;;;;5084485;28;20054;-76
2021/05/07 02:27:23;;;;;;;5.70;3.53;;;359.10;1766.40;;;;;;5075571;28;20020;-78
2021/05/07 02:29:49;;;;;;;5.60;3.75;;;359.00;1766.40;;;;;;5087328;28;20536;-76
2021/05/07 02:32:15;;;;;;;6.88;3.60;;;359.00;1766.40;;;;;;5084508;28;20047;-75
2021/05/07 02:34:41;;;;;;;5.85;3.90;;;359.00;1766.40;;;;;;5074191;28;20025;-77
2021/05/07 02:37:07;;;;;;;8.68;4.65;;;359.00;1792.00;;;;;;5082010;28;20044;-75
2021/05/07 02:39:33;;;;;;;9.20;4.03;;;359.00;1792.00;;;;;;5078871;28;20094;-77
2021/05/07 02:41:59;;;;;;;8.98;4.03;;;359.00;1792.00;;;;;;5094985;28;20433;-77
2021/05/07 02:44:25;;;;;;;7.88;4.45;;;359.00;1792.00;;;;;;5079973;28;20029;-77
2021/05/07 02:46:51;;;;;;;7.03;4.07;;;359.00;1792.00;;;;;;5074966;28;20021;-74
2021/05/07 02:49:16;;;;;;;7.22;4.22;;;359.00;1792.00;;;;;;5085520;28;20032;-75
2021/05/07 02:51:42;;;;;;;5.72;4.05;;;359.00;1792.00;;;;;;5093853;28;20023;-76
2021/05/07 02:54:08;;;;;;;6.13;4.07;;;359.00;1792.00;;;;;;5094369;28;20032;-77
2021/05/07 02:56:34;;;;;;;7.13;4.30;;;359.00;1792.00;;;;;;5076733;28;20115;-77
2021/05/07 02:59:00;;;;;;;8.35;4.65;;;359.00;1792.00;;;;;;5072986;28;20046;-75
2021/05/07 03:01:25;;;;;;;9.07;4.82;;;359.00;1792.00;;;;;;5091824;28;20488;-78
2021/05/07 03:03:51;;;;;;;7.03;4.00;;;359.00;1817.60;;;;;;5091257;28;20024;-79
2021/05/07 03:06:17;;;;;;;5.85;4.25;;;359.00;1817.60;;;;;;5090530;28;20712;-78
2021/05/07 03:08:43;;;;;;;8.15;4.93;;;359.00;1817.60;;;;;;5075995;28;20024;-79
2021/05/07 03:11:09;;;;;;;7.45;4.68;;;359.00;1817.60;;;;;;5086526;28;20040;-78
2021/05/07 03:13:34;;;;;;;7.72;4.78;;;359.00;1817.60;;;;;;5074197;28;20028;-79
2021/05/07 03:16:00;;;;;;;6.20;3.97;;;359.00;1843.20;;;;;;5085510;28;20031;-77
2021/05/07 03:18:27;;;;;;;7.22;4.82;;;359.00;1843.20;;;;;;5090518;28;20480;-80
2021/05/07 03:20:53;;;;;;;7.25;5.05;;;359.00;1843.20;;;;;;5077201;28;20550;-79
2021/05/07 03:23:19;;;;;;;7.22;4.40;;;358.90;1843.20;;;;;;5088495;28;20032;-77
2021/05/07 03:25:47;;;;;;;7.85;4.78;;;359.00;1843.20;;;;;;5075626;28;20372;-77
2021/05/07 03:28:13;;;;;;;7.97;4.82;;;359.00;1843.20;;;;;;5087929;28;20583;-79
2021/05/07 03:30:40;;;;;;;7.10;4.45;;;359.10;1843.20;;;;;;5075867;28;20127;-79
2021/05/07 03:33:06;;;;;;;8.02;3.83;;;359.10;1843.20;;;;;;5076542;28;20435;-78
2021/05/07 03:35:33;;;;;;;6.47;4.05;;;359.10;1843.20;;;;;;5090837;28;20524;-80
2021/05/07 03:37:59;;;;;;;7.88;4.50;;;359.10;1843.20;;;;;;5085057;28;20476;-77
2021/05/07 03:40:25;;;;;;;5.50;4.03;;;359.10;1843.20;;;;;;5083195;28;20032;-78
2021/05/07 03:42:51;;;;;;;11.52;4.80;;;359.20;1843.20;;;;;;5075903;28;20032;-77
2021/05/07 03:45:18;;;;;;;8.38;4.20;;;359.10;1868.80;;;;;;5073313;28;20038;-79
2021/05/07 03:47:44;;;;;;;7.95;3.95;;;359.20;1868.80;;;;;;5086253;28;20412;-78
2021/05/07 03:50:11;;;;;;;8.65;4.88;;;359.20;1868.80;;;;;;5090968;28;20039;-79
2021/05/07 03:52:38;;;;;;;8.52;4.55;;;359.20;1868.80;;;;;;5092046;28;20040;-78
2021/05/07 03:55:06;;;;;;;7.68;4.60;;;359.20;1868.80;;;;;;5089561;28;20098;-80
2021/05/07 03:57:32;;;;;;;10.25;5.10;;;359.20;1868.80;;;;;;5084862;28;20044;-79
2021/05/07 03:59:58;;;;;;;7.20;4.35;;;359.20;1868.80;;;;;;5078699;28;20024;-79
2021/05/07 04:02:24;;;;;;;6.32;4.22;;;359.30;1868.80;;;;;;5087927;28;20031;-78
2021/05/07 04:04:54;;;;;;;8.07;4.72;;;359.30;1868.80;;;;;;5085462;28;20024;-79
2021/05/07 04:07:21;;;;;;;8.00;4.75;;;359.30;1868.80;;;;;;5087461;28;20081;-78
2021/05/07 04:09:53;;;;;;;8.70;4.28;;;359.30;1868.80;;;;;;5080293;28;20124;-79
2021/05/07 04:15:09;;;;;;;8.88;4.45;;;384.00;1894.40;;;;;;5050688;28;20033;-79
2021/05/07 04:17:34;;;;;;;12.45;4.70;;;384.10;1868.80;;;;;;5033063;28;20390;-79
2021/05/07 04:20:00;;;;;;;8.40;5.15;;;384.00;1868.80;;;;;;5047942;28;20123;-78
2021/05/07 04:22:26;;;;;;;7.63;5.03;;;384.00;1894.40;;;;;;5050279;28;20039;-78
2021/05/07 04:24:52;;;;;;;8.40;5.68;;;384.00;1894.40;;;;;;5037161;28;20056;-78
2021/05/07 04:27:17;;;;;;;10.27;5.30;;;384.00;1894.40;;;;;;5046525;28;20052;-78
2021/05/07 04:29:43;;;;;;;7.55;4.97;;;384.10;1894.40;;;;;;5044295;28;20056;-78
2021/05/07 04:32:09;;;;;;;8.25;4.75;;;384.20;1894.40;;;;;;5034646;28;20536;-78
2021/05/07 04:34:34;;;;;;;6.97;5.07;;;384.20;1894.40;;;;;;5032504;28;20441;-78
2021/05/07 04:37:00;;;;;;;8.55;4.88;;;384.30;1894.40;;;;;;5029996;28;20064;-77
2021/05/07 04:39:26;;;;;;;9.27;5.00;;;384.20;1894.40;;;;;;5029424;28;20045;-77
2021/05/07 04:41:52;;;;;;;10.07;4.45;;;384.30;1894.40;;;;;;5020663;28;20025;-78
2021/05/07 04:44:18;;;;;;;6.07;4.43;;;384.30;1894.40;;;;;;5029949;28;20025;-78
2021/05/07 04:46:44;;;;;;;7.18;5.25;;;384.40;1894.40;;;;;;5044237;28;20053;-78
2021/05/07 04:49:09;;;;;;;6.90;4.55;;;384.50;1894.40;;;;;;5030324;28;20076;-79
2021/05/07 04:51:35;;;;;;;11.48;6.10;;;384.50;1894.40;;;;;;5055184;28;20051;-79
2021/05/07 04:54:02;;;;;;;8.48;4.65;;;384.50;1894.40;;;;;;5092356;28;20503;-77
2021/05/07 04:56:28;;;;;;;8.23;4.50;;;384.50;1894.40;;;;;;5091295;28;20103;-78
2021/05/07 04:58:53;;;;;;;6.28;4.30;;;384.60;1894.40;;;;;;5070867;28;20115;-79
2021/05/07 05:01:19;;;;;;;9.57;5.90;;;384.70;1868.80;;;;;;5075701;28;20396;-79
2021/05/07 05:03:45;;;;;;;9.50;4.93;;;384.70;1894.40;;;;;;5083730;28;20025;-76
2021/05/07 05:06:10;;;;;;;22.35;6.00;;;384.70;1894.40;;;;;;5076465;28;20024;-79
2021/05/07 05:08:36;;;;;;;9.75;4.72;;;384.80;1868.80;;;;;;5075151;28;20033;-78
2021/05/07 05:11:02;;;;;;;7.20;5.15;;;384.90;1868.80;;;;;;5078673;28;20047;-77
2021/05/07 05:13:28;;;;;;;13.23;5.85;;;384.90;1868.80;;;;;;5090670;28;20035;-77
2021/05/07 05:15:56;;;;;;;8.73;5.82;;;409.60;1894.40;;;;;;5078185;28;20111;-76
2021/05/07 05:18:34;;;;;;;9.45;6.32;;;384.90;1894.40;;;;;;5090219;28;20024;-77
2021/05/07 05:21:02;;;;;;;7.78;6.00;;;409.60;1894.40;;;;;;5079251;28;20032;-78
2021/05/07 05:23:29;;;;;;;7.45;5.28;;;409.70;1894.40;;;;;;5088337;28;20085;-78
2021/05/07 05:25:55;;;;;;;13.77;4.20;;;409.70;1894.40;;;;;;5088466;28;20016;-78
2021/05/07 05:28:21;;;;;;;10.40;4.88;;;410.00;1868.80;;;;;;5092165;28;20052;-77
2021/05/07 05:30:47;;;;;;;6.78;5.35;;;410.00;1868.80;;;;;;5091665;28;20077;-77
2021/05/07 05:33:13;;;;;;;9.85;4.93;;;410.10;1868.80;;;;;;5084817;28;20020;-78
2021/05/07 05:35:39;;;;;;;8.93;5.30;;;410.20;1868.80;;;;;;5089587;28;20020;-77
2021/05/07 05:38:05;;;;;;;9.50;4.68;;;410.40;1843.20;;;;;;5088860;28;20028;-77
2021/05/07 05:40:31;;;;;;;8.05;4.68;;;410.40;1843.20;;;;;;5084749;28;20028;-76
2021/05/07 05:42:58;;;;;;;6.97;5.00;;;435.20;1817.60;;;;;;5085775;28;20497;-76
2021/05/07 05:45:25;;;;;;;9.43;4.70;;;435.20;1817.60;;;;;;5088389;28;20067;-76
2021/05/07 05:48:01;;;;;;;6.35;4.72;;;435.40;1792.00;;;;;;5089121;28;20028;-75
2021/05/07 05:50:28;;;;;;;7.90;5.07;;;435.70;1792.00;;;;;;5090865;28;20054;-76
2021/05/07 05:52:53;;;;;;;8.27;4.47;;;435.80;1766.40;;;;;;5089367;28;20024;-75
2021/05/07 05:55:20;;;;;;;8.20;4.53;;;436.00;1740.80;;;;;;5089651;28;20040;-75
2021/05/07 05:57:46;;;;;;;9.48;5.10;;;436.10;1740.80;;;;;;5087069;28;20040;-75
2021/05/07 06:00:13;;;;;;;13.13;5.50;;;460.80;1740.80;;;;;;5089093;28;20438;-76
2021/05/07 06:02:39;;;;;;;10.32;5.22;;;460.80;1740.80;;;;;;5084155;28;20055;-76
2021/05/07 06:05:10;;;;;;;9.98;4.53;;;461.00;1740.80;;;;;;5090003;28;20018;-75
2021/05/07 06:07:37;;;;;;;7.88;4.60;;;461.10;1740.80;;;;;;5088377;28;20157;-75
2021/05/07 06:10:05;;;;;;;8.75;4.75;;;461.20;1715.20;;;;;;5090500;28;20048;-75
2021/05/07 06:12:31;;;;;;;12.48;5.03;;;461.10;1715.20;;;;;;5088186;28;20038;-75
2021/05/07 06:14:57;;;;;;;6.93;4.43;;;461.30;1715.20;;;;;;5092102;28;20496;-76
2021/05/07 06:17:23;;;;;;;9.52;5.07;;;461.40;1689.60;;;;;;5092734;28;20039;-76
2021/05/07 06:19:49;;;;;;;7.90;5.20;;;461.50;1689.60;;;;;;5092408;28;20028;-76
2021/05/07 06:22:14;;;;;;;8.95;5.50;;;461.40;1689.60;;;;;;5092241;28;20035;-76
2021/05/07 06:24:40;;;;;;;9.88;5.30;;;461.50;1689.60;;;;;;5092440;28;20070;-75
2021/05/07 06:27:06;;;;;;;11.13;5.97;;;486.40;1664.00;;;;;;5092634;28;20052;-75
2021/05/07 06:29:32;;;;;;;7.38;5.18;;;486.40;1664.00;;;;;;5092933;28;20419;-75
2021/05/07 06:31:57;;;;;;;8.60;5.68;;;461.70;1689.60;;;;;;5088995;28;20020;-76
2021/05/07 06:34:24;;;;;;;10.45;4.80;;;461.50;1689.60;;;;;;5088169;28;20032;-77
2021/05/07 06:36:50;;;;;;;9.45;5.00;;;461.60;1689.60;;;;;;5083968;28;20120;-77
2021/05/07 06:39:15;;;;;;;12.27;6.28;;;461.70;1689.60;;;;;;5081467;28;20053;-77
2021/05/07 06:41:41;;;;;;;10.43;5.95;;;461.60;1715.20;;;;;;5086632;28;20103;-77
2021/05/07 06:44:07;;;;;;;8.68;5.53;;;461.60;1689.60;;;;;;5094849;28;20031;-76
2021/05/07 06:46:33;;;;;;;9.52;6.07;;;461.40;1715.20;;;;;;5093547;28;20028;-77
2021/05/07 06:48:59;;;;;;;10.75;5.18;;;461.50;1689.60;;;;;;5088080;28;20549;-77
2021/05/07 06:51:27;;;;;;;10.60;5.82;;;461.40;1715.20;;;;;;5090271;28;20039;-76
2021/05/07 06:53:53;;;;;;;8.77;4.90;;;461.30;1715.20;;;;;;5088745;28;20031;-76
2021/05/07 06:56:22;;;;;;;11.25;6.00;;;461.30;1715.20;;;;;;5093088;28;20538;-76
2021/05/07 06:58:49;;;;;;;11.88;6.13;;;461.30;1715.20;;;;;;5089068;28;20028;-76
2021/05/07 07:01:15;;;;;;;11.52;5.53;;;461.30;1740.80;;;;;;5093105;28;20024;-76
2021/05/07 07:03:41;;;;;;;9.80;5.25;;;461.30;1715.20;;;;;;5094373;28;20519;-76
2021/05/07 07:06:07;;;;;;;13.73;5.68;;;461.30;1740.80;;;;;;5083924;28;20488;-76
2021/05/07 07:08:33;;;;;;;11.48;5.40;;;461.30;1715.20;;;;;;5085459;28;20028;-76
2021/05/07 07:10:59;;;;;;;11.77;5.22;;;461.50;1715.20;;;;;;5090565;28;20697;-76
2021/05/07 07:13:26;;;;;;;10.85;6.57;;;461.60;1715.20;;;;;;5086722;28;20036;-76
2021/05/07 07:15:51;;;;;;;12.00;6.80;;;461.50;1715.20;;;;;;5089939;28;20032;-76
2021/05/07 07:18:18;;;;;;;11.32;6.57;;;486.40;1715.20;;;;;;5085557;28;20028;-76
2021/05/07 07:20:44;;;;;;;12.60;5.78;;;486.60;1689.60;;;;;;5086767;28;20024;-77
2021/05/07 07:23:10;;;;;;;13.35;6.32;;;487.00;1664.00;;;;;;5089937;28;20032;-76
2021/05/07 07:25:36;;;;;;;17.65;6.32;;;487.20;1638.40;;;;;;5087845;28;20073;-76
2021/05/07 07:28:04;;;;;;;10.43;5.63;;;487.30;1638.40;;;;;;5091015;28;20075;-76
2021/05/07 07:30:30;;;;;;;11.18;6.22;;;512.00;1638.40;;;;;;5086594;28;20079;-75
2021/05/07 07:32:56;;;;;;;11.50;6.80;;;487.30;1638.40;;;;;;5090168;28;20074;-74
2021/05/07 07:35:21;;;;;;;10.20;6.28;;;512.00;1638.40;;;;;;5085847;28;20025;-74
2021/05/07 07:37:47;;;;;;;9.20;6.00;;;512.00;1638.40;;;;;;5086756;28;20024;-75
2021/05/07 07:40:14;;;;;;;11.75;5.93;;;512.00;1638.40;;;;;;5090283;28;20036;-75
2021/05/07 07:42:40;;;;;;;13.13;6.50;;;512.30;1612.80;;;;;;5089663;28;20099;-75
2021/05/07 07:45:08;;;;;;;8.90;5.30;;;512.30;1612.80;;;;;;5092614;28;20027;-75
2021/05/07 07:47:34;;;;;;;10.27;6.10;;;512.50;1587.20;;;;;;5092864;28;20551;-75
2021/05/07 07:50:00;;;;;;;9.68;5.28;;;537.60;1612.80;;;;;;5086045;28;20029;-75
2021/05/07 07:52:26;;;;;;;10.98;4.85;;;537.60;1587.20;;;;;;5088276;28;20073;-76
2021/05/07 07:54:51;;;;;;;7.40;5.63;;;538.10;1561.60;;;;;;5082433;28;20430;-76
2021/05/07 07:57:17;;;;;;;10.45;4.55;;;563.20;1561.60;;;;;;5088334;28;20027;-76
2021/05/07 07:59:43;;;;;;;10.07;5.60;;;563.20;1536.00;;;;;;5086082;28;20393;-77
2021/05/07 08:02:09;;;;;;;10.15;5.25;;;563.70;1510.40;;;;;;5091873;28;20492;-75
2021/05/07 08:04:34;;;;;;;9.05;4.85;;;564.10;1510.40;;;;;;5084932;28;20047;-76
2021/05/07 08:07:00;;;;;;;7.53;5.32;;;563.70;1510.40;;;;;;5083927;28;20047;-76
2021/05/07 08:09:26;;;;;;;7.07;4.45;;;563.70;1510.40;;;;;;5089547;28;20028;-76
2021/05/07 08:11:53;;;;;;;5.72;3.85;;;563.80;1484.80;;;;;;5081941;28;20092;-76
2021/05/07 08:14:19;;;;;;;9.00;5.28;;;563.80;1510.40;;;;;;5081108;28;20107;-76
2021/05/07 08:16:45;;;;;;;7.80;3.92;;;563.80;1510.40;;;;;;5088483;28;20021;-77
2021/05/07 08:19:11;;;;;;;4.97;3.72;;;563.70;1484.80;;;;;;5089275;28;20136;-77
2021/05/07 08:21:36;;;;;;;7.25;3.53;;;563.80;1484.80;;;;;;5086134;28;20496;-76
2021/05/07 08:24:03;;;;;;;5.07;3.60;;;563.60;1484.80;;;;;;5086207;28;20145;-77
2021/05/07 08:26:28;;;;;;;6.28;3.63;;;563.50;1484.80;;;;;;5064919;28;20489;-77
2021/05/07 08:28:54;;;;;;;5.93;3.70;;;563.70;1484.80;;;;;;5085215;28;20035;-77
2021/05/07 08:31:20;;;;;;;8.60;4.05;;;563.50;1510.40;;;;;;5084040;28;20024;-78
2021/05/07 08:33:46;;;;;;;6.35;3.38;;;563.50;1510.40;;;;;;5082837;28;20020;-78
2021/05/07 08:36:11;;;;;;;6.10;3.65;;;563.40;1484.80;;;;;;5084118;28;20097;-78
2021/05/07 08:38:37;;;;;;;6.88;4.22;;;563.70;1459.20;;;;;;5083428;28;20103;-77
2021/05/07 08:41:04;;;;;;;8.35;4.22;;;563.70;1459.20;;;;;;5082746;28;20032;-77
2021/05/07 08:43:30;;;;;;;7.60;4.43;;;563.80;1433.60;;;;;;5088816;28;20040;-77
2021/05/07 08:45:56;;;;;;;6.95;4.03;;;564.00;1433.60;;;;;;5083625;28;20037;-78
2021/05/07 08:48:24;;;;;;;5.95;3.78;;;588.80;1433.60;;;;;;5081482;28;20032;-78
2021/05/07 08:50:54;;;;;;;9.60;4.85;;;589.10;1408.00;;;;;;5080747;28;20036;-79
2021/05/07 08:53:20;;;;;;;12.20;5.55;;;589.40;1408.00;;;;;;5078665;28;20101;-76
2021/05/07 08:55:47;;;;;;;6.45;4.32;;;589.40;1382.40;;;;;;5082486;28;20149;-76
2021/05/07 08:58:14;;;;;;;6.80;3.80;;;589.40;1382.40;;;;;;5082181;28;20085;-76
2021/05/07 09:00:39;;;;;;;8.20;4.63;;;589.50;1356.80;;;;;;5079872;28;20032;-76
2021/05/07 09:03:11;;;;;;;11.30;4.13;;;614.50;1331.20;;;;;;5081595;28;20040;-77
2021/05/07 09:05:37;;;;;;;7.32;3.65;;;614.80;1305.60;;;;;;5102974;28;20040;-76
2021/05/07 09:08:05;;;;;;;8.00;3.08;;;615.00;1305.60;;;;;;5077706;28;20036;-76
2021/05/07 09:10:39;;;;;;;5.70;3.50;;;615.30;1254.40;;;;;;5082585;28;20515;-76
2021/05/07 09:13:09;;;;;;;6.38;4.03;;;615.30;1228.80;;;;;;5082356;28;20028;-76
2021/05/07 09:15:42;;;;;;;6.68;3.75;;;615.30;1228.80;;;;;;5083045;28;20477;-76
2021/05/07 09:18:10;;;;;;;5.32;2.40;;;615.10;1203.20;;;;;;5082452;28;20107;-76
2021/05/07 09:20:47;;;;;;;7.68;2.85;;;614.80;1228.80;;;;;;5085948;28;20051;-77
2021/05/07 09:23:14;;;;;;;10.05;3.10;;;614.60;1228.80;;;;;;5080739;28;20040;-76
2021/05/07 09:25:47;;;;;;;4.10;2.38;;;614.70;1228.80;;;;;;5082357;28;20028;-77
2021/05/07 09:28:16;;;;;;;6.97;2.85;;;614.70;1228.80;;;;;;5084309;28;20028;-76
2021/05/07 09:30:43;;;;;;;6.20;3.45;;;614.90;1228.80;;;;;;5083605;28;20024;-76
2021/05/07 09:33:14;;;;;;;6.60;2.58;;;614.90;1203.20;;;;;;5082096;28;20024;-76
2021/05/07 09:35:42;;;;;;;4.97;3.00;;;615.10;1228.80;;;;;;5079956;28;20028;-76
2021/05/07 09:38:13;;;;;;;4.60;3.35;;;640.00;1203.20;;;;;;5081061;28;20028;-76
2021/05/07 09:40:41;;;;;;;4.32;2.10;;;640.20;1177.60;;;;;;5090381;28;20030;-77
2021/05/07 09:43:10;;;;;;;5.57;2.47;;;615.30;1152.00;;;;;;5088505;28;20056;-76
2021/05/07 09:45:40;;;;;;;5.93;2.78;;;615.20;1152.00;;;;;;5085631;28;20032;-79
2021/05/07 09:48:27;;;;;;;5.93;2.13;;;614.90;1152.00;;;;;;5089097;28;20093;-78
2021/05/07 09:51:01;;;;;;;6.22;2.55;;;614.70;1177.60;;;;;;5090681;28;20743;-77
2021/05/07 09:53:30;;;;;;;5.00;2.90;;;614.60;1177.60;;;;;;5084150;28;20105;-77
2021/05/07 09:55:59;;;;;;;7.70;2.50;;;614.60;1203.20;;;;;;5081908;28;20484;-78
2021/05/07 09:58:27;;;;;;;3.78;2.65;;;614.40;1203.20;;;;;;5083148;28;20029;-77
2021/05/07 10:00:55;;;;;;;5.53;2.38;;;614.70;1177.60;;;;;;5082598;28;20035;-80
2021/05/07 10:03:22;;;;;;;3.53;2.30;;;614.90;1152.00;;;;;;5088223;28;20432;-78
2021/05/07 10:05:48;;;;;;;4.05;2.53;;;615.00;1152.00;;;;;;5088108;28;20059;-80
2021/05/07 10:08:13;;;;;;;5.75;2.30;;;615.20;1126.40;;;;;;5091923;28;20504;-80
2021/05/07 10:10:44;;;;;;;6.53;2.38;;;640.00;1126.40;;;;;;5086893;28;20512;-80
2021/05/07 10:13:15;;;;;;;4.63;2.58;;;640.30;1126.40;;;;;;5081507;28;20029;-79
2021/05/07 10:15:43;;;;;;;4.03;2.45;;;640.50;1100.80;;;;;;5089966;28;20499;-80
2021/05/07 10:18:11;;;;;;;5.72;2.38;;;640.70;1100.80;;;;;;5088745;28;20492;-79
2021/05/07 10:20:40;;;;;;;4.88;2.33;;;665.60;1075.20;;;;;;5090883;28;20024;-79
2021/05/07 10:23:20;;;;;;;6.72;2.97;;;666.10;1049.60;;;;;;5093368;28;20089;-79
2021/05/07 10:26:13;;;;;;;6.45;2.78;;;666.50;1049.60;;;;;;5092051;28;20058;-79
2021/05/07 10:28:53;;;;;;;4.88;2.67;;;666.50;1024.00;;;;;;5081618;28;20395;-79
2021/05/07 10:31:21;;;;;;;10.38;3.50;;;691.40;1024.00;;;;;;5092053;28;20025;-79
2021/05/07 10:33:58;;;;;;;9.65;3.00;;;691.40;998.40;;;;;;5076939;28;20028;-79
2021/05/07 10:36:44;;;;;;;5.13;2.40;;;691.20;1024.00;;;;;;5080962;28;20032;-78
2021/05/07 10:39:20;;;;;;;4.88;3.00;;;692.10;972.80;;;;;;5082021;28;20032;-78
2021/05/07 10:41:47;;;;;;;;;;;717.20;972.80;;;;;;5085419;28;20036;-77
2021/05/07 10:44:15;;;;;;;7.18;3.55;;;691.90;998.40;;;;;;5092491;28;19910;-78
2021/05/07 10:46:42;;;;;;;5.07;2.63;;;691.70;1024.00;;;;;;5088680;28;20143;-80
2021/05/07 10:49:08;;;;;;;8.20;3.70;;;691.60;1024.00;;;;;;5090430;28;20027;-79
2021/05/07 10:51:34;;;;;;;8.23;4.40;;;665.70;1203.20;;;;;;5087792;28;20024;-80
2021/05/07 10:54:11;;;;;;;9.68;3.83;;;615.10;1331.20;;;;;;5091102;28;20030;-80
2021/05/07 10:56:38;;;;;;;7.47;3.90;;;614.40;1408.00;;;;;;5091952;28;20036;-79
2021/05/07 10:59:16;;;;;;;9.90;4.65;;;614.70;1433.60;;;;;;5089816;28;20028;-78
2021/05/07 11:02:02;;;;;;;6.57;4.93;;;589.50;1484.80;;;;;;5086116;28;20024;-78
2021/05/07 11:04:41;;;;;;;8.85;5.05;;;589.50;1484.80;;;;;;5089038;28;20044;-78
2021/05/07 11:07:06;;;;;;;11.30;5.60;;;589.30;1510.40;;;;;;5085193;28;20021;-79
2021/05/07 11:09:32;;;;;;;8.18;5.15;;;588.80;1536.00;;;;;;5089670;28;20044;-79
2021/05/07 11:12:03;;;;;;;8.55;3.60;;;563.70;1561.60;;;;;;5093557;28;20024;-79
2021/05/07 11:14:33;;;;;;;5.38;4.07;;;563.50;1587.20;;;;;;5091308;28;20016;-79
2021/05/07 11:16:59;;;;;;;9.60;4.90;;;563.70;1587.20;;;;;;5087826;28;20016;-79
2021/05/07 11:19:33;;;;;;;8.85;4.63;;;563.70;1587.20;;;;;;5089731;28;20028;-80
2021/05/07 11:22:05;;;;;;;10.82;5.03;;;563.90;1587.20;;;;;;5093798;28;20027;-79
2021/05/07 11:24:39;;;;;;;8.95;5.38;;;564.00;1561.60;;;;;;5073547;28;20032;-77
2021/05/07 11:27:23;;;;;;;9.32;5.40;;;589.30;1510.40;;;;;;5090871;28;20107;-78
2021/05/07 11:29:50;;;;;;;10.93;4.53;;;589.10;1510.40;;;;;;5090208;28;20449;-78
2021/05/07 11:32:19;;;;;;;8.82;5.40;;;588.80;1510.40;;;;;;5087402;28;20545;-78
2021/05/07 11:34:53;;;;;;;9.05;5.22;;;564.00;1561.60;;;;;;5086231;28;20039;-78
2021/05/07 11:37:20;;;;;;;8.75;5.22;;;563.70;1587.20;;;;;;5087035;28;20101;-78
2021/05/07 11:40:00;;;;;;;8.65;5.80;;;563.70;1612.80;;;;;;5093198;28;20066;-78
2021/05/07 11:42:31;;;;;;;11.00;5.20;;;563.80;1587.20;;;;;;5087500;28;20034;-78
2021/05/07 11:44:58;;;;;;;8.40;5.07;;;563.60;1587.20;;;;;;5084190;28;20512;-78
2021/05/07 11:47:29;;;;;;;7.35;4.05;;;563.30;1612.80;;;;;;5090513;28;20111;-78
2021/05/07 11:49:55;;;;;;;11.10;5.35;;;563.20;1612.80;;;;;;5090036;28;20028;-78
2021/05/07 11:52:35;;;;;;;7.47;4.22;;;563.60;1638.40;;;;;;5089827;28;20103;-78
2021/05/07 11:55:01;;;;;;;6.57;3.92;;;563.50;1612.80;;;;;;5088807;28;20028;-78
2021/05/07 11:57:31;;;;;;;6.90;3.83;;;563.50;1612.80;;;;;;5090394;28;20031;-79
2021/05/07 11:59:58;;;;;;;7.20;4.05;;;563.20;1638.40;;;;;;5085979;28;20549;-78
2021/05/07 12:02:25;;;;;;;8.70;5.25;;;538.40;1638.40;;;;;;5090333;28;20036;-78
2021/05/07 12:04:53;;;;;;;8.80;4.90;;;538.30;1664.00;;;;;;5090253;28;20573;-78
2021/05/07 12:07:30;;;;;;;9.93;5.00;;;538.30;1689.60;;;;;;5091189;28;20122;-78
2021/05/07 12:09:57;;;;;;;7.68;5.03;;;538.40;1664.00;;;;;;5089765;28;20066;-78
2021/05/07 12:12:26;;;;;;;7.63;4.40;;;538.00;1664.00;;;;;;5091036;28;20111;-78
2021/05/07 12:15:06;;;;;;;7.95;4.28;;;537.90;1664.00;;;;;;5089474;28;20388;-78
2021/05/07 12:17:44;;;;;;;12.68;4.63;;;537.90;1689.60;;;;;;5087559;28;20054;-78
2021/05/07 12:20:21;;;;;;;7.88;4.90;;;538.30;1664.00;;;;;;5088318;28;20036;-78